Time;durP1;ratioP1;P1;durP2;ratioP2;P2;SDS_P1;SDS_P2;PMS_P1;PMS_P2;Temp;Humidity;BMP_temperature;BMP_pressure;BME280_temperature;BME280_humidity;BME280_pressure;Samples;Min_cycle;Max_cycle;Signal;HPM_P1;HPM_P2
2023/12/08 00:01:02;;;;;;;24.98;11.95;;;2.40;99.90;;;;;;4872220;29;20043;-68
2023/12/08 00:03:28;;;;;;;25.70;12.82;;;2.40;99.90;;;;;;4868921;29;20080;-69
2023/12/08 00:05:53;;;;;;;24.65;12.27;;;2.40;99.90;;;;;;4875679;29;20049;-68
2023/12/08 00:08:19;;;;;;;22.38;12.20;;;2.40;99.90;;;;;;4876349;29;20052;-68
2023/12/08 00:10:44;;;;;;;25.48;13.40;;;2.40;99.90;;;;;;4847500;29;20057;-68
2023/12/08 00:13:10;;;;;;;29.33;11.90;;;2.40;99.90;;;;;;4856210;29;20045;-68
2023/12/08 00:15:35;;;;;;;20.75;11.52;;;2.40;99.90;;;;;;4875309;29;20045;-68
2023/12/08 00:18:01;;;;;;;22.30;11.27;;;2.40;99.90;;;;;;4874965;29;20045;-68
2023/12/08 00:20:27;;;;;;;23.25;11.20;;;2.40;99.90;;;;;;4869271;29;20073;-68
2023/12/08 00:22:52;;;;;;;23.52;11.52;;;2.40;99.90;;;;;;4876718;29;20056;-68
2023/12/08 00:25:18;;;;;;;25.45;12.02;;;2.40;99.90;;;;;;4877179;29;20045;-68
2023/12/08 00:27:43;;;;;;;21.90;11.57;;;2.40;99.90;;;;;;4872758;29;20041;-68
2023/12/08 00:30:09;;;;;;;23.65;11.95;;;2.40;99.90;;;;;;4873318;29;20049;-69
2023/12/08 00:32:35;;;;;;;24.48;11.65;;;2.40;99.90;;;;;;4865781;29;20037;-69
2023/12/08 00:35:00;;;;;;;23.23;12.65;;;2.40;99.90;;;;;;4874986;29;20072;-69
2023/12/08 00:37:26;;;;;;;26.42;12.45;;;2.40;99.90;;;;;;4879455;29;20048;-68
2023/12/08 00:39:52;;;;;;;23.92;11.63;;;2.40;99.90;;;;;;4876891;29;20400;-68
2023/12/08 00:42:18;;;;;;;26.27;11.70;;;2.40;99.90;;;;;;4879331;29;20100;-68
2023/12/08 00:44:44;;;;;;;23.85;12.57;;;2.40;99.90;;;;;;4874707;29;20044;-69
2023/12/08 00:47:09;;;;;;;27.08;11.68;;;2.40;99.90;;;;;;4872467;29;20061;-69
2023/12/08 00:49:35;;;;;;;23.63;12.57;;;2.30;99.90;;;;;;4880671;29;20043;-69
2023/12/08 00:52:00;;;;;;;26.58;12.63;;;2.30;99.90;;;;;;4872833;29;20442;-69
2023/12/08 00:54:26;;;;;;;23.55;13.05;;;2.30;99.90;;;;;;4879332;29;20081;-69
2023/12/08 00:56:51;;;;;;;23.10;11.68;;;2.30;99.90;;;;;;4880131;29;20043;-69
2023/12/08 00:59:17;;;;;;;28.15;13.30;;;2.30;99.90;;;;;;4877356;29;20037;-68
2023/12/08 01:01:42;;;;;;;22.98;12.38;;;2.30;99.90;;;;;;4862882;29;20084;-69
2023/12/08 01:04:08;;;;;;;24.70;12.82;;;2.30;99.90;;;;;;4876306;29;20492;-69
2023/12/08 01:06:33;;;;;;;26.55;12.77;;;2.30;99.90;;;;;;4844794;29;20103;-68
2023/12/08 01:08:59;;;;;;;27.33;13.38;;;2.30;99.90;;;;;;4859945;29;20097;-68
2023/12/08 01:11:25;;;;;;;26.95;12.98;;;2.30;99.90;;;;;;4866665;29;20049;-68
2023/12/08 01:13:50;;;;;;;28.05;13.02;;;2.30;99.90;;;;;;4879310;29;20048;-68
2023/12/08 01:16:16;;;;;;;24.75;12.75;;;2.20;99.90;;;;;;4875513;29;20044;-68
2023/12/08 01:18:41;;;;;;;27.80;13.25;;;2.30;99.90;;;;;;4864119;29;20492;-68
2023/12/08 01:21:07;;;;;;;27.45;13.55;;;2.30;99.90;;;;;;4879022;29;20437;-68
2023/12/08 01:23:32;;;;;;;27.15;12.82;;;2.30;99.90;;;;;;4879593;29;20461;-68
2023/12/08 01:25:58;;;;;;;25.55;13.30;;;2.30;99.90;;;;;;4876037;29;20431;-69
2023/12/08 01:28:23;;;;;;;23.73;12.63;;;2.30;99.90;;;;;;4876573;29;20101;-68
2023/12/08 01:30:49;;;;;;;29.75;13.57;;;2.30;99.90;;;;;;4878633;29;20045;-69
2023/12/08 01:33:14;;;;;;;28.02;13.70;;;2.30;99.90;;;;;;4860700;29;20049;-69
2023/12/08 01:35:40;;;;;;;31.65;13.82;;;2.30;99.90;;;;;;4868682;29;20180;-68
2023/12/08 01:38:05;;;;;;;25.20;13.50;;;2.30;99.90;;;;;;4878777;29;20048;-69
2023/12/08 01:40:31;;;;;;;25.90;12.85;;;2.30;99.90;;;;;;4879528;29;20052;-69
2023/12/08 01:42:57;;;;;;;26.33;13.30;;;2.30;99.90;;;;;;4873801;29;20056;-69
2023/12/08 01:45:22;;;;;;;25.13;12.23;;;2.30;99.90;;;;;;4867443;29;20056;-68
2023/12/08 01:47:49;;;;;;;24.83;13.30;;;2.30;99.90;;;;;;4878066;29;20052;-68
2023/12/08 01:50:17;;;;;;;26.17;13.77;;;2.30;99.90;;;;;;4872221;29;20503;-68
2023/12/08 01:52:43;;;;;;;25.40;13.73;;;2.30;99.90;;;;;;4865814;29;20068;-69
2023/12/08 01:55:10;;;;;;;27.23;13.27;;;2.30;99.90;;;;;;4877494;29;20049;-68
2023/12/08 01:57:36;;;;;;;28.23;13.65;;;2.30;99.90;;;;;;4877721;29;20045;-68
2023/12/08 02:00:02;;;;;;;26.40;14.43;;;2.30;99.90;;;;;;4864510;29;20179;-68
2023/12/08 02:02:28;;;;;;;25.10;12.52;;;2.30;99.90;;;;;;4877531;29;20053;-68
2023/12/08 02:04:57;;;;;;;27.33;13.10;;;2.30;99.90;;;;;;4877724;29;20044;-68
2023/12/08 02:07:22;;;;;;;28.35;13.60;;;2.20;99.90;;;;;;4864335;29;20339;-68
2023/12/08 02:09:48;;;;;;;27.85;13.48;;;2.20;99.90;;;;;;4878611;29;20562;-68
2023/12/08 02:12:14;;;;;;;26.38;14.35;;;2.30;99.90;;;;;;4878277;29;20584;-68
2023/12/08 02:14:39;;;;;;;24.02;12.48;;;2.20;99.90;;;;;;4869210;29;20045;-68
2023/12/08 02:17:16;;;;;;;27.50;13.88;;;2.20;99.90;;;;;;4874527;29;20041;-68
2023/12/08 02:19:42;;;;;;;29.15;14.40;;;2.20;99.90;;;;;;4877556;29;20049;-68
2023/12/08 02:22:08;;;;;;;28.55;13.57;;;2.20;99.90;;;;;;4878824;29;20049;-68
2023/12/08 02:24:33;;;;;;;29.35;14.10;;;2.20;99.90;;;;;;4866649;29;20665;-68
2023/12/08 02:26:59;;;;;;;26.75;13.73;;;2.20;99.90;;;;;;4862971;29;20509;-68
2023/12/08 02:29:25;;;;;;;26.45;13.40;;;2.20;99.90;;;;;;4872203;29;20045;-68
2023/12/08 02:32:00;;;;;;;28.83;13.77;;;2.20;99.90;;;;;;4878340;29;20045;-68
2023/12/08 02:34:27;;;;;;;32.22;14.57;;;2.20;99.90;;;;;;4871993;29;20104;-68
2023/12/08 02:36:54;;;;;;;24.95;13.18;;;2.20;99.90;;;;;;4873018;29;20037;-68
2023/12/08 02:39:21;;;;;;;29.13;13.93;;;2.20;99.90;;;;;;4877002;29;20107;-68
2023/12/08 02:41:46;;;;;;;25.60;13.38;;;2.20;99.90;;;;;;4874231;29;20056;-68
2023/12/08 02:44:12;;;;;;;29.23;14.70;;;2.20;99.90;;;;;;4847030;29;20050;-68
2023/12/08 02:46:37;;;;;;;29.83;13.70;;;2.20;99.90;;;;;;4847204;29;20040;-68
2023/12/08 02:49:03;;;;;;;25.25;12.43;;;2.20;99.90;;;;;;4878361;29;20067;-68
2023/12/08 02:51:29;;;;;;;31.95;14.82;;;2.20;99.90;;;;;;4877942;29;20501;-68
2023/12/08 02:53:55;;;;;;;28.20;14.00;;;2.20;99.90;;;;;;4866432;29;20056;-68
2023/12/08 02:56:20;;;;;;;26.52;13.35;;;2.20;99.90;;;;;;4875956;29;20037;-68
2023/12/08 02:58:46;;;;;;;29.45;13.65;;;2.20;99.90;;;;;;4878060;29;20385;-68
2023/12/08 03:01:11;;;;;;;28.08;13.75;;;2.20;99.90;;;;;;4850147;29;20045;-68
2023/12/08 03:03:37;;;;;;;27.38;13.63;;;2.20;99.90;;;;;;4849539;29;20068;-68
2023/12/08 03:06:02;;;;;;;30.42;15.00;;;2.20;99.90;;;;;;4877730;29;20721;-68
2023/12/08 03:08:28;;;;;;;26.65;13.57;;;2.20;99.90;;;;;;4876379;29;20053;-68
2023/12/08 03:10:53;;;;;;;28.63;13.50;;;2.20;99.90;;;;;;4855920;29;20088;-68
2023/12/08 03:13:20;;;;;;;26.05;13.07;;;2.20;99.90;;;;;;4869952;29;20037;-68
2023/12/08 03:15:45;;;;;;;27.92;13.98;;;2.20;99.90;;;;;;4876292;29;20501;-68
2023/12/08 03:18:11;;;;;;;26.27;13.32;;;2.20;99.90;;;;;;4868301;29;20116;-68
2023/12/08 03:20:36;;;;;;;27.30;13.68;;;2.20;99.90;;;;;;4862343;29;20408;-68
2023/12/08 03:23:02;;;;;;;27.35;12.93;;;2.20;99.90;;;;;;4877225;29;20097;-68
2023/12/08 03:25:27;;;;;;;25.58;13.60;;;2.20;99.90;;;;;;4877541;29;20068;-68
2023/12/08 03:27:53;;;;;;;25.13;13.30;;;2.10;99.90;;;;;;4872518;29;20119;-68
2023/12/08 03:30:18;;;;;;;27.40;13.35;;;2.10;99.90;;;;;;4846958;29;20084;-68
2023/12/08 03:32:44;;;;;;;27.60;13.73;;;2.00;99.90;;;;;;4875439;29;20048;-68
2023/12/08 03:35:09;;;;;;;28.35;13.63;;;2.00;99.90;;;;;;4868836;29;20053;-69
2023/12/08 03:37:35;;;;;;;28.42;13.85;;;1.90;99.90;;;;;;4865776;29;20025;-68
2023/12/08 03:40:01;;;;;;;27.83;14.05;;;1.90;99.90;;;;;;4876406;29;20068;-68
2023/12/08 03:42:27;;;;;;;29.05;13.75;;;1.80;99.90;;;;;;4875323;29;20080;-68
2023/12/08 03:44:53;;;;;;;28.33;13.73;;;1.80;99.90;;;;;;4867161;29;20084;-68
2023/12/08 03:47:18;;;;;;;29.52;14.38;;;1.80;99.90;;;;;;4858561;29;20409;-68
2023/12/08 03:49:44;;;;;;;27.95;13.48;;;1.80;99.90;;;;;;4875240;29;20650;-68
2023/12/08 03:52:10;;;;;;;28.88;14.23;;;1.80;99.90;;;;;;4865532;29;20980;-69
2023/12/08 03:54:35;;;;;;;28.90;13.93;;;1.80;99.90;;;;;;4870152;29;20197;-68
2023/12/08 03:57:01;;;;;;;30.65;14.45;;;1.80;99.90;;;;;;4876501;29;20080;-68
2023/12/08 03:59:26;;;;;;;26.13;13.18;;;1.80;99.90;;;;;;4876650;29;20052;-68
2023/12/08 04:01:52;;;;;;;29.58;14.45;;;1.80;99.90;;;;;;4866499;29;20056;-68
2023/12/08 04:04:18;;;;;;;27.20;13.75;;;1.70;99.90;;;;;;4874191;29;20124;-68
2023/12/08 04:06:44;;;;;;;28.15;13.63;;;1.80;99.90;;;;;;4874938;29;20124;-68
2023/12/08 04:09:09;;;;;;;29.70;13.27;;;1.80;99.90;;;;;;4866988;29;20061;-68
2023/12/08 04:11:35;;;;;;;27.85;13.15;;;1.80;99.90;;;;;;4879551;29;20037;-68
2023/12/08 04:14:00;;;;;;;27.60;13.15;;;1.70;99.90;;;;;;4878505;29;20493;-68
2023/12/08 04:16:26;;;;;;;31.08;14.15;;;1.70;99.90;;;;;;4879770;29;20052;-68
2023/12/08 04:18:52;;;;;;;27.85;14.20;;;1.80;99.90;;;;;;4870815;29;20047;-68
2023/12/08 04:21:18;;;;;;;30.58;13.35;;;1.80;99.90;;;;;;4872753;29;20044;-68
2023/12/08 04:23:44;;;;;;;32.58;13.88;;;1.80;99.90;;;;;;4878098;29;20049;-68
2023/12/08 04:26:09;;;;;;;28.23;13.82;;;1.80;99.90;;;;;;4867243;29;20045;-68
2023/12/08 04:28:35;;;;;;;28.05;13.68;;;1.80;99.90;;;;;;4876537;29;20523;-68
2023/12/08 04:31:00;;;;;;;28.23;13.95;;;1.80;99.90;;;;;;4866259;29;20385;-69
2023/12/08 04:33:26;;;;;;;29.50;13.57;;;1.80;99.90;;;;;;4864011;29;20037;-68
2023/12/08 04:35:51;;;;;;;27.20;13.23;;;1.70;99.90;;;;;;4874421;29;20530;-68
2023/12/08 04:38:17;;;;;;;26.20;13.02;;;1.70;99.90;;;;;;4877592;29;20077;-68
2023/12/08 04:40:42;;;;;;;27.70;13.07;;;1.70;99.90;;;;;;4879673;29;20044;-68
2023/12/08 04:43:08;;;;;;;26.60;13.38;;;1.70;99.90;;;;;;4858845;29;20041;-68
2023/12/08 04:45:34;;;;;;;26.63;13.15;;;1.70;99.90;;;;;;4857643;29;20049;-68
2023/12/08 04:47:59;;;;;;;27.15;13.32;;;1.70;99.90;;;;;;4871552;29;20105;-68
2023/12/08 04:50:25;;;;;;;28.27;13.75;;;1.70;99.90;;;;;;4870369;29;20053;-68
2023/12/08 04:52:51;;;;;;;27.30;13.48;;;1.70;99.90;;;;;;4877280;29;20109;-68
2023/12/08 04:55:17;;;;;;;26.67;12.77;;;1.70;99.90;;;;;;4877844;29;20448;-68
2023/12/08 04:57:42;;;;;;;26.27;12.82;;;1.70;99.90;;;;;;4871793;29;20041;-68
2023/12/08 05:00:08;;;;;;;29.55;14.27;;;1.70;99.90;;;;;;4876064;29;20044;-68
2023/12/08 05:02:34;;;;;;;28.23;13.35;;;1.70;99.90;;;;;;4880535;29;20056;-68
2023/12/08 05:05:00;;;;;;;31.30;14.02;;;1.70;99.90;;;;;;4873263;29;20041;-69
2023/12/08 05:07:26;;;;;;;28.92;13.50;;;1.70;99.90;;;;;;4868631;29;20064;-69
2023/12/08 05:09:51;;;;;;;27.63;13.45;;;1.70;99.90;;;;;;4851468;29;20048;-68
2023/12/08 05:12:17;;;;;;;29.88;14.02;;;1.70;99.90;;;;;;4872222;29;20548;-68
2023/12/08 05:14:43;;;;;;;30.08;15.07;;;1.70;99.90;;;;;;4877467;29;20049;-68
2023/12/08 05:17:08;;;;;;;29.50;14.02;;;1.70;99.90;;;;;;4871295;29;20037;-68
2023/12/08 05:19:34;;;;;;;29.83;13.70;;;1.70;99.90;;;;;;4861555;29;20089;-68
2023/12/08 05:22:01;;;;;;;30.90;14.50;;;1.70;99.90;;;;;;4877557;29;20056;-68
2023/12/08 05:24:26;;;;;;;31.38;14.20;;;1.70;99.90;;;;;;4867789;29;20116;-68
2023/12/08 05:26:52;;;;;;;30.63;14.73;;;1.70;99.90;;;;;;4878020;29;20580;-68
2023/12/08 05:29:17;;;;;;;30.42;13.50;;;1.70;99.90;;;;;;4878675;29;20599;-68
2023/12/08 05:31:43;;;;;;;34.45;13.93;;;1.70;99.90;;;;;;4867650;29;20041;-68
2023/12/08 05:34:08;;;;;;;29.83;13.73;;;1.70;99.90;;;;;;4859535;29;20049;-68
2023/12/08 05:36:34;;;;;;;29.52;15.35;;;1.70;99.90;;;;;;4877796;29;20056;-68
2023/12/08 05:38:59;;;;;;;29.13;14.35;;;1.60;99.90;;;;;;4878671;29;20124;-67
2023/12/08 05:41:25;;;;;;;28.98;13.82;;;1.70;99.90;;;;;;4873540;29;20127;-69
2023/12/08 05:43:50;;;;;;;36.05;14.90;;;1.70;99.90;;;;;;4872840;29;20124;-69
2023/12/08 05:46:16;;;;;;;29.90;13.77;;;1.60;99.90;;;;;;4878195;29;20080;-68
2023/12/08 05:48:41;;;;;;;35.60;15.60;;;1.60;99.90;;;;;;4858416;29;20077;-68
2023/12/08 05:51:07;;;;;;;33.53;15.38;;;1.70;99.90;;;;;;4849355;29;20088;-68
2023/12/08 05:53:32;;;;;;;29.60;14.32;;;1.60;99.90;;;;;;4877389;29;20497;-68
2023/12/08 05:55:58;;;;;;;32.85;14.88;;;1.60;99.90;;;;;;4874992;29;20429;-68
2023/12/08 05:58:26;;;;;;;29.13;13.63;;;1.60;99.90;;;;;;4883601;29;20040;-68
2023/12/08 06:00:52;;;;;;;29.48;13.90;;;1.60;99.90;;;;;;4895101;29;20068;-68
2023/12/08 06:03:17;;;;;;;34.20;14.95;;;1.60;99.90;;;;;;4884841;29;20077;-68
2023/12/08 06:05:43;;;;;;;31.77;14.07;;;1.60;99.90;;;;;;4863258;29;20140;-68
2023/12/08 06:08:08;;;;;;;31.67;14.38;;;1.60;99.90;;;;;;4877168;29;20068;-69
2023/12/08 06:10:34;;;;;;;30.88;14.27;;;1.60;99.90;;;;;;4877985;29;20041;-68
2023/12/08 06:13:00;;;;;;;31.92;14.80;;;1.60;99.90;;;;;;4877597;29;20040;-68
2023/12/08 06:15:25;;;;;;;35.72;15.13;;;1.60;99.90;;;;;;4872751;29;20059;-68
2023/12/08 06:17:51;;;;;;;33.83;14.65;;;1.60;99.90;;;;;;4876510;29;20037;-68
2023/12/08 06:20:16;;;;;;;32.42;15.30;;;1.50;99.90;;;;;;4873875;29;20173;-69
2023/12/08 06:22:43;;;;;;;32.15;14.52;;;1.60;99.90;;;;;;4869761;29;20045;-69
2023/12/08 06:25:08;;;;;;;31.67;15.18;;;1.60;99.90;;;;;;4862603;29;20041;-68
2023/12/08 06:27:35;;;;;;;31.30;14.52;;;1.50;99.90;;;;;;4876324;29;20263;-69
2023/12/08 06:30:01;;;;;;;32.85;14.50;;;1.60;99.90;;;;;;4873471;29;20069;-68
2023/12/08 06:32:30;;;;;;;31.13;15.27;;;1.60;99.90;;;;;;4870631;29;20041;-68
2023/12/08 06:34:56;;;;;;;31.17;15.02;;;1.60;99.90;;;;;;4875515;29;20073;-68
2023/12/08 06:37:21;;;;;;;33.47;15.20;;;1.60;99.90;;;;;;4877585;29;20041;-68
2023/12/08 06:39:47;;;;;;;31.35;14.82;;;1.60;99.90;;;;;;4852784;29;20045;-68
2023/12/08 06:42:12;;;;;;;29.77;14.45;;;1.60;99.90;;;;;;4859768;29;20628;-69
2023/12/08 06:44:38;;;;;;;29.77;14.60;;;1.60;99.90;;;;;;4877088;29;20049;-69
2023/12/08 06:47:04;;;;;;;31.45;15.32;;;1.60;99.90;;;;;;4868800;29;20037;-68
2023/12/08 06:49:30;;;;;;;31.95;14.85;;;1.50;99.90;;;;;;4873516;29;20037;-69
2023/12/08 06:51:56;;;;;;;36.92;15.63;;;1.60;99.90;;;;;;4877108;29;20044;-69
2023/12/08 06:54:21;;;;;;;29.73;14.55;;;1.60;99.90;;;;;;4877031;29;20654;-69
2023/12/08 06:56:47;;;;;;;35.20;15.90;;;1.60;99.90;;;;;;4868856;29;20089;-68
2023/12/08 06:59:12;;;;;;;37.13;15.80;;;1.60;99.90;;;;;;4876211;29;20041;-68
2023/12/08 07:01:38;;;;;;;35.85;14.75;;;1.60;99.90;;;;;;4875769;29;20044;-68
2023/12/08 07:04:04;;;;;;;31.60;15.68;;;1.60;99.90;;;;;;4876804;29;20089;-66
2023/12/08 07:06:30;;;;;;;32.45;15.60;;;1.60;99.90;;;;;;4868949;29;20029;-68
2023/12/08 07:08:55;;;;;;;34.38;16.08;;;1.60;99.90;;;;;;4870846;29;20041;-68
2023/12/08 07:11:21;;;;;;;42.22;16.60;;;1.50;99.90;;;;;;4877007;29;20457;-68
2023/12/08 07:13:47;;;;;;;38.17;17.35;;;1.50;99.90;;;;;;4854461;29;20048;-68
2023/12/08 07:16:12;;;;;;;33.55;17.38;;;1.60;99.90;;;;;;4873569;29;20041;-68
2023/12/08 07:18:38;;;;;;;38.05;16.40;;;1.60;99.90;;;;;;4875623;29;20096;-68
2023/12/08 07:21:04;;;;;;;35.53;17.48;;;1.60;99.90;;;;;;4872481;29;20041;-67
2023/12/08 07:23:30;;;;;;;33.22;14.43;;;1.60;99.90;;;;;;4854549;29;20115;-67
2023/12/08 07:25:55;;;;;;;35.70;15.75;;;1.60;99.90;;;;;;4861272;29;20151;-67
2023/12/08 07:28:21;;;;;;;38.97;16.35;;;1.60;99.90;;;;;;4872566;29;20075;-68
2023/12/08 07:30:46;;;;;;;31.58;14.75;;;1.60;99.90;;;;;;4855067;29;20052;-68
2023/12/08 07:33:12;;;;;;;33.47;15.07;;;1.60;99.90;;;;;;4867320;29;20045;-69
2023/12/08 07:35:37;;;;;;;33.50;15.70;;;1.60;99.90;;;;;;4875327;29;20048;-68
2023/12/08 07:38:03;;;;;;;35.83;15.77;;;1.60;99.90;;;;;;4876414;29;20508;-68
2023/12/08 07:40:29;;;;;;;33.88;15.68;;;1.60;99.90;;;;;;4876632;29;20504;-68
2023/12/08 07:42:55;;;;;;;35.35;15.95;;;1.60;99.90;;;;;;4852601;29;20112;-67
2023/12/08 07:45:21;;;;;;;32.85;14.88;;;1.60;99.90;;;;;;4874018;29;20378;-67
2023/12/08 07:47:47;;;;;;;31.65;14.60;;;1.70;99.90;;;;;;4873766;29;20045;-67
2023/12/08 07:50:13;;;;;;;31.65;14.77;;;1.70;99.90;;;;;;4874044;29;20083;-68
2023/12/08 07:52:41;;;;;;;33.40;15.65;;;1.70;99.90;;;;;;4871711;29;20056;-67
2023/12/08 07:55:08;;;;;;;31.45;13.88;;;1.70;99.90;;;;;;4873966;29;20075;-67
2023/12/08 07:57:33;;;;;;;31.50;15.00;;;1.70;99.90;;;;;;4879719;29;20045;-68
2023/12/08 07:59:59;;;;;;;33.83;15.32;;;1.70;99.90;;;;;;4879887;29;20041;-67
2023/12/08 08:02:25;;;;;;;32.47;15.00;;;1.70;99.90;;;;;;4872420;29;20042;-67
2023/12/08 08:04:50;;;;;;;37.47;16.48;;;1.70;99.90;;;;;;4871183;29;20625;-68
2023/12/08 08:07:16;;;;;;;32.58;15.50;;;1.70;99.90;;;;;;4879480;29;20045;-68
2023/12/08 08:09:42;;;;;;;32.72;14.70;;;1.70;99.90;;;;;;4880267;29;20045;-68
2023/12/08 08:12:09;;;;;;;34.15;15.35;;;1.70;99.90;;;;;;4874277;29;20040;-69
2023/12/08 08:14:34;;;;;;;37.63;15.85;;;1.80;99.90;;;;;;4870658;29;20041;-69
2023/12/08 08:17:01;;;;;;;30.83;15.50;;;1.80;99.90;;;;;;4878190;29;20433;-69
2023/12/08 08:19:27;;;;;;;31.75;15.02;;;1.80;99.90;;;;;;4874630;29;20108;-68
2023/12/08 08:21:52;;;;;;;33.70;16.17;;;1.80;99.90;;;;;;4879400;29;20518;-68
2023/12/08 08:24:18;;;;;;;36.63;15.90;;;1.80;99.90;;;;;;4879146;29;20041;-68
2023/12/08 08:26:44;;;;;;;29.50;14.50;;;1.80;99.90;;;;;;4878445;29;20081;-68
2023/12/08 08:29:10;;;;;;;34.58;15.57;;;1.90;99.90;;;;;;4867450;29;20056;-69
2023/12/08 08:31:36;;;;;;;36.70;15.68;;;1.90;99.90;;;;;;4879237;29;20041;-68
2023/12/08 08:34:03;;;;;;;34.67;15.40;;;1.80;99.90;;;;;;4879451;29;20505;-68
2023/12/08 08:36:29;;;;;;;31.23;14.82;;;1.90;99.90;;;;;;4873828;29;20116;-68
2023/12/08 08:38:54;;;;;;;33.42;15.57;;;1.90;99.90;;;;;;4875160;29;20122;-68
2023/12/08 08:41:21;;;;;;;33.90;14.65;;;1.90;99.90;;;;;;4879392;29;20449;-68
2023/12/08 08:43:47;;;;;;;31.48;14.50;;;1.90;99.90;;;;;;4873636;29;20522;-68
2023/12/08 08:46:13;;;;;;;35.25;15.18;;;1.90;99.90;;;;;;4876213;29;20055;-68
2023/12/08 08:48:38;;;;;;;31.70;15.00;;;1.90;99.90;;;;;;4878155;29;20049;-68
2023/12/08 08:51:04;;;;;;;34.95;15.88;;;1.90;99.90;;;;;;4879711;29;20037;-68
2023/12/08 08:53:30;;;;;;;33.25;15.45;;;1.90;99.90;;;;;;4866854;29;20033;-68
2023/12/08 08:55:56;;;;;;;32.40;15.88;;;1.90;99.90;;;;;;4874004;29;20508;-69
2023/12/08 08:58:21;;;;;;;34.47;16.15;;;1.80;99.90;;;;;;4877442;29;20041;-69
2023/12/08 09:00:47;;;;;;;33.42;15.40;;;1.80;99.90;;;;;;4862327;29;20053;-69
2023/12/08 09:03:13;;;;;;;30.20;14.57;;;1.90;99.90;;;;;;4867334;29;20045;-68
2023/12/08 09:05:41;;;;;;;32.28;14.77;;;1.90;99.90;;;;;;4878365;29;20049;-68
2023/12/08 09:08:10;;;;;;;36.92;15.68;;;1.90;99.90;;;;;;4854865;29;20450;-67
2023/12/08 09:10:36;;;;;;;31.02;14.75;;;1.90;99.90;;;;;;4848175;29;20044;-68
2023/12/08 09:13:02;;;;;;;32.05;15.15;;;1.90;99.90;;;;;;4878281;29;20073;-69
2023/12/08 09:15:28;;;;;;;33.20;15.27;;;1.90;99.90;;;;;;4878527;29;20101;-69
2023/12/08 09:17:55;;;;;;;34.85;15.02;;;1.90;99.90;;;;;;4868068;29;20049;-69
2023/12/08 09:20:20;;;;;;;36.65;15.98;;;1.90;99.90;;;;;;4878250;29;20049;-68
2023/12/08 09:22:46;;;;;;;31.52;14.75;;;1.90;99.90;;;;;;4877098;29;20044;-68
2023/12/08 09:25:12;;;;;;;31.92;14.68;;;1.90;99.90;;;;;;4869700;29;20442;-68
2023/12/08 09:27:37;;;;;;;33.80;15.63;;;1.90;99.90;;;;;;4871115;29;20469;-68
2023/12/08 09:30:04;;;;;;;32.85;14.73;;;2.00;99.90;;;;;;4878370;29;20101;-68
2023/12/08 09:32:29;;;;;;;33.08;14.65;;;2.00;99.90;;;;;;4861604;29;20037;-67
2023/12/08 09:34:55;;;;;;;34.35;15.00;;;2.00;99.90;;;;;;4867103;29;20056;-68
2023/12/08 09:37:21;;;;;;;31.33;15.30;;;2.00;99.90;;;;;;4869282;29;20045;-68
2023/12/08 09:39:46;;;;;;;30.17;15.07;;;2.00;99.90;;;;;;4875048;29;20045;-68
2023/12/08 09:42:21;;;;;;;32.65;14.95;;;2.00;99.90;;;;;;4871411;29;20045;-68
2023/12/08 09:44:48;;;;;;;33.13;15.18;;;2.00;99.90;;;;;;4867801;29;20468;-68
2023/12/08 09:47:17;;;;;;;31.75;15.15;;;2.00;99.90;;;;;;4874455;29;20036;-68
2023/12/08 09:49:46;;;;;;;36.20;15.45;;;2.00;99.90;;;;;;4865026;29;20100;-68
2023/12/08 09:52:14;;;;;;;32.65;15.05;;;2.10;99.90;;;;;;4877786;29;20087;-69
2023/12/08 09:54:40;;;;;;;35.60;15.82;;;2.10;99.90;;;;;;4877746;29;20088;-68
2023/12/08 09:57:08;;;;;;;35.00;16.00;;;2.10;99.90;;;;;;4869195;29;20577;-67
2023/12/08 09:59:37;;;;;;;32.97;14.75;;;2.10;99.90;;;;;;4845166;29;20397;-68
2023/12/08 10:02:03;;;;;;;34.00;15.85;;;2.10;99.90;;;;;;4855553;29;20576;-67
2023/12/08 10:04:28;;;;;;;33.83;15.77;;;2.10;99.90;;;;;;4877508;29;20049;-68
2023/12/08 10:07:00;;;;;;;33.85;15.63;;;2.20;99.90;;;;;;4872612;29;20080;-68
2023/12/08 10:09:29;;;;;;;34.10;15.75;;;2.10;99.90;;;;;;4873409;29;20057;-69
2023/12/08 10:11:55;;;;;;;34.55;16.02;;;2.20;99.90;;;;;;4875212;29;20052;-69
2023/12/08 10:14:21;;;;;;;34.92;16.30;;;2.20;99.90;;;;;;4871909;29;20037;-68
2023/12/08 10:16:47;;;;;;;34.28;16.33;;;2.20;99.90;;;;;;4870286;29;20060;-68
2023/12/08 10:19:13;;;;;;;33.83;16.08;;;2.20;99.90;;;;;;4872915;29;20111;-68
2023/12/08 10:21:39;;;;;;;36.60;15.60;;;2.20;99.90;;;;;;4877210;29;20053;-67
2023/12/08 10:24:07;;;;;;;37.95;17.30;;;2.20;99.90;;;;;;4858015;29;20056;-67
2023/12/08 10:26:33;;;;;;;33.42;15.93;;;2.20;99.90;;;;;;4867470;29;20037;-67
2023/12/08 10:29:05;;;;;;;32.83;16.10;;;2.30;99.90;;;;;;5088167;27;20458;-68
2023/12/08 10:31:31;;;;;;;35.05;16.83;;;2.30;99.90;;;;;;5081193;28;20487;-69
2023/12/08 10:33:57;;;;;;;35.53;16.60;;;2.40;99.90;;;;;;5079763;28;20044;-68
2023/12/08 10:36:22;;;;;;;38.38;16.92;;;2.30;99.90;;;;;;5095036;28;20062;-67
2023/12/08 10:38:49;;;;;;;33.80;15.70;;;2.30;99.90;;;;;;5086177;28;20145;-68
2023/12/08 10:41:16;;;;;;;36.70;16.75;;;2.40;99.90;;;;;;5083123;28;20445;-67
2023/12/08 10:43:43;;;;;;;36.35;16.05;;;2.40;99.90;;;;;;5079937;28;20116;-68
2023/12/08 10:46:09;;;;;;;38.10;17.70;;;2.40;99.90;;;;;;5095205;28;20534;-68
2023/12/08 10:48:37;;;;;;;41.50;18.48;;;2.40;99.90;;;;;;5084678;28;20052;-68
2023/12/08 10:51:03;;;;;;;44.83;16.98;;;2.40;99.90;;;;;;5075092;28;20044;-68
2023/12/08 10:53:29;;;;;;;41.60;17.52;;;2.40;99.90;;;;;;5099306;28;20043;-68
2023/12/08 10:56:04;;;;;;;42.83;17.13;;;2.40;99.90;;;;;;5092923;28;20105;-67
2023/12/08 10:58:32;;;;;;;42.95;18.33;;;2.50;99.90;;;;;;5081869;28;20055;-68
2023/12/08 11:01:00;;;;;;;52.90;19.20;;;2.50;99.90;;;;;;5079891;28;20048;-68
2023/12/08 11:03:32;;;;;;;41.85;18.55;;;2.50;99.90;;;;;;5086449;28;20083;-67
2023/12/08 11:06:14;;;;;;;47.67;18.20;;;2.50;99.90;;;;;;5077473;28;20048;-67
2023/12/08 11:08:44;;;;;;;46.70;18.13;;;2.60;99.90;;;;;;5083838;28;20036;-68
2023/12/08 11:11:11;;;;;;;51.75;19.08;;;2.60;99.90;;;;;;5076431;28;20033;-67
2023/12/08 11:13:42;;;;;;;53.95;18.45;;;2.60;99.90;;;;;;5083635;28;20524;-67
2023/12/08 11:16:08;;;;;;;;;;;2.60;99.90;;;;;;5069802;28;20044;-67
2023/12/08 11:18:36;;;;;;;46.83;19.30;;;2.60;99.90;;;;;;5065756;28;19927;-67
2023/12/08 11:21:09;;;;;;;50.25;19.23;;;2.70;99.90;;;;;;5077076;28;20052;-67
2023/12/08 11:23:40;;;;;;;48.38;17.85;;;2.70;99.90;;;;;;5076259;28;20096;-67
2023/12/08 11:26:22;;;;;;;52.60;19.98;;;2.70;99.90;;;;;;5091361;28;20028;-67
2023/12/08 11:29:02;;;;;;;;;;;2.70;99.90;;;;;;5066671;28;20036;-67
2023/12/08 11:31:36;;;;;;;57.83;18.65;;;2.80;99.90;;;;;;5071589;28;19995;-67
2023/12/08 11:34:13;;;;;;;48.25;17.33;;;2.70;99.90;;;;;;5086081;28;20043;-67
2023/12/08 11:36:45;;;;;;;53.53;19.02;;;2.80;99.90;;;;;;5064914;28;20124;-67
2023/12/08 11:39:40;;;;;;;54.97;20.20;;;2.80;99.90;;;;;;5058539;28;20041;-67
2023/12/08 11:42:16;;;;;;;43.15;18.15;;;2.80;99.90;;;;;;5060929;28;20048;-68
2023/12/08 11:44:46;;;;;;;49.63;19.08;;;2.80;99.90;;;;;;5065749;28;20082;-68
2023/12/08 11:47:21;;;;;;;62.08;20.77;;;2.90;99.90;;;;;;5066399;28;20282;-67
2023/12/08 11:49:48;;;;;;;53.15;18.95;;;2.90;99.90;;;;;;5065849;28;20475;-67
2023/12/08 11:52:19;;;;;;;58.05;19.35;;;3.00;99.90;;;;;;5071263;28;20032;-68
2023/12/08 11:55:15;;;;;;;59.92;19.42;;;3.00;99.90;;;;;;5070314;28;20032;-67
2023/12/08 11:57:59;;;;;;;51.60;18.80;;;3.00;99.90;;;;;;5069382;28;20121;-70
2023/12/08 12:00:26;;;;;;;52.88;18.33;;;3.00;99.90;;;;;;5071087;28;20067;-67
2023/12/08 12:02:53;;;;;;;52.50;19.08;;;3.00;99.90;;;;;;5072746;28;20040;-67
2023/12/08 12:05:19;;;;;;;67.65;19.88;;;3.10;99.90;;;;;;5067219;28;20060;-68
2023/12/08 12:07:49;;;;;;;58.55;20.55;;;3.00;99.90;;;;;;5062965;28;20119;-68
2023/12/08 12:10:26;;;;;;;51.05;18.80;;;3.00;99.90;;;;;;5067212;28;20079;-67
2023/12/08 12:13:13;;;;;;;57.90;19.75;;;3.00;99.90;;;;;;5063752;28;20056;-67
2023/12/08 12:15:41;;;;;;;50.15;18.42;;;3.10;99.90;;;;;;5068808;28;20040;-68
2023/12/08 12:18:07;;;;;;;59.80;20.23;;;3.10;99.90;;;;;;5060543;28;20044;-67
2023/12/08 12:20:34;;;;;;;52.22;19.52;;;3.10;99.90;;;;;;5068738;28;20123;-68
2023/12/08 12:23:00;;;;;;;57.38;20.30;;;3.10;99.90;;;;;;5060096;28;20109;-67
2023/12/08 12:25:26;;;;;;;70.00;20.23;;;3.00;99.90;;;;;;5070908;28;20466;-68
2023/12/08 12:27:53;;;;;;;49.95;19.05;;;3.10;99.90;;;;;;5072368;28;20044;-68
2023/12/08 12:30:20;;;;;;;62.47;19.90;;;3.10;99.90;;;;;;5052791;28;20051;-68
2023/12/08 12:32:47;;;;;;;69.53;19.42;;;3.10;99.90;;;;;;5060460;28;20043;-69
2023/12/08 12:35:13;;;;;;;62.42;19.77;;;3.10;99.90;;;;;;5070058;28;20162;-68